Time;durP1;ratioP1;P1;durP2;ratioP2;P2;SDS_P1;SDS_P2;PMS_P1;PMS_P2;Temp;Humidity;BMP_temperature;BMP_pressure;BME280_temperature;BME280_humidity;BME280_pressure;Samples;Min_cycle;Max_cycle;Signal;HPM_P1;HPM_P2
2023/01/14 00:02:04;;;;;;;5.77;1.50;;;;;;;;;;5057465;28;20460;-82
2023/01/14 00:04:31;;;;;;;4.57;2.30;;;;;;;;;;5055265;28;20957;-83
2023/01/14 00:06:58;;;;;;;6.93;1.93;;;;;;;;;;5060073;28;20447;-82
2023/01/14 00:09:29;;;;;;;8.30;2.00;;;;;;;;;;5057687;28;20454;-83
2023/01/14 00:11:56;;;;;;;4.27;1.60;;;;;;;;;;5060390;28;20547;-82
2023/01/14 00:14:23;;;;;;;2.90;1.63;;;;;;;;;;5061658;28;20460;-82
2023/01/14 00:16:50;;;;;;;12.67;3.37;;;;;;;;;;5062032;28;20466;-83
2023/01/14 00:19:18;;;;;;;5.70;1.70;;;;;;;;;;5063201;28;20956;-82
2023/01/14 00:21:45;;;;;;;6.90;2.20;;;;;;;;;;5060884;28;20486;-82
2023/01/14 00:24:11;;;;;;;6.13;1.80;;;;;;;;;;5061161;28;20921;-82
2023/01/14 00:26:40;;;;;;;11.50;2.47;;;;;;;;;;5061712;28;20477;-81
2023/01/14 00:29:06;;;;;;;15.77;2.40;;;;;;;;;;5062923;28;20479;-83
2023/01/14 00:31:32;;;;;;;4.30;1.70;;;;;;;;;;5059269;28;20757;-82
2023/01/14 00:34:00;;;;;;;2.00;1.70;;;;;;;;;;5062450;28;20488;-82
2023/01/14 00:36:28;;;;;;;2.90;1.80;;;;;;;;;;5062941;28;20608;-83
2023/01/14 00:38:54;;;;;;;8.73;1.93;;;;;;;;;;5046124;28;20451;-82
2023/01/14 00:41:23;;;;;;;8.13;2.50;;;;;;;;;;5062674;28;20467;-82
2023/01/14 00:43:52;;;;;;;10.07;2.77;;;;;;;;;;5060980;28;20475;-82
2023/01/14 00:46:20;;;;;;;6.43;1.73;;;;;;;;;;5060661;28;20475;-82
2023/01/14 00:48:46;;;;;;;12.37;4.37;;;;;;;;;;5063115;28;20485;-82
2023/01/14 00:51:13;;;;;;;11.83;2.23;;;;;;;;;;5060300;28;20490;-82
2023/01/14 00:53:40;;;;;;;10.50;2.10;;;;;;;;;;5061523;28;20474;-82
2023/01/14 00:56:08;;;;;;;4.87;2.07;;;;;;;;;;5063669;28;20491;-83
2023/01/14 00:58:34;;;;;;;5.17;2.00;;;;;;;;;;5062419;28;20444;-82
2023/01/14 01:01:04;;;;;;;12.17;2.37;;;;;;;;;;5061709;28;21036;-82
2023/01/14 01:03:30;;;;;;;8.93;2.20;;;;;;;;;;5062594;28;20467;-82
2023/01/14 01:05:57;;;;;;;10.67;2.23;;;;;;;;;;5064706;28;20475;-82
2023/01/14 01:08:23;;;;;;;6.67;1.93;;;;;;;;;;5061975;28;20841;-82
2023/01/14 01:10:51;;;;;;;4.40;1.90;;;;;;;;;;5063172;28;20859;-81
2023/01/14 01:13:17;;;;;;;8.23;2.30;;;;;;;;;;5063927;28;20468;-81
2023/01/14 01:15:45;;;;;;;7.70;3.00;;;;;;;;;;5059383;28;20525;-82
2023/01/14 01:18:13;;;;;;;6.37;2.00;;;;;;;;;;5064489;28;20459;-82
2023/01/14 01:20:39;;;;;;;7.43;2.03;;;;;;;;;;5063457;28;21002;-81
2023/01/14 01:23:08;;;;;;;7.07;1.83;;;;;;;;;;5059581;28;20479;-81
2023/01/14 01:25:36;;;;;;;6.43;1.40;;;;;;;;;;5064029;28;20475;-82
2023/01/14 01:28:02;;;;;;;6.40;2.00;;;;;;;;;;5062901;28;20490;-81
2023/01/14 01:30:28;;;;;;;10.80;2.00;;;;;;;;;;5061693;28;20499;-82
2023/01/14 01:32:55;;;;;;;12.37;2.57;;;;;;;;;;5061871;28;20485;-81
2023/01/14 01:35:23;;;;;;;8.57;2.27;;;;;;;;;;5060743;28;20463;-81
2023/01/14 01:37:50;;;;;;;5.77;1.90;;;;;;;;;;5061641;28;20470;-81
2023/01/14 01:40:16;;;;;;;10.73;2.77;;;;;;;;;;5059387;28;20480;-81
2023/01/14 01:42:55;;;;;;;11.80;2.70;;;;;;;;;;5061296;28;20478;-82
2023/01/14 01:45:25;;;;;;;14.40;2.80;;;;;;;;;;5058558;28;21207;-81
2023/01/14 01:47:54;;;;;;;7.07;2.53;;;;;;;;;;5060998;28;20561;-82
2023/01/14 01:50:21;;;;;;;9.93;3.77;;;;;;;;;;5061287;28;20480;-81
2023/01/14 01:52:49;;;;;;;6.53;2.03;;;;;;;;;;5060690;28;20478;-81
2023/01/14 01:55:16;;;;;;;7.50;2.57;;;;;;;;;;5061599;28;20482;-82
2023/01/14 01:57:43;;;;;;;8.27;2.70;;;;;;;;;;5062875;28;20443;-81
2023/01/14 02:00:10;;;;;;;5.43;1.33;;;;;;;;;;5060874;28;20471;-82
2023/01/14 02:02:38;;;;;;;3.23;1.50;;;;;;;;;;5060744;28;20488;-81
2023/01/14 02:05:05;;;;;;;8.93;2.07;;;;;;;;;;5062300;28;20490;-81
2023/01/14 02:07:31;;;;;;;5.33;1.73;;;;;;;;;;5059540;28;20502;-82
2023/01/14 02:10:00;;;;;;;7.30;2.40;;;;;;;;;;5062271;28;20483;-81
2023/01/14 02:12:36;;;;;;;3.00;2.00;;;;;;;;;;5060300;28;20463;-81
2023/01/14 02:15:08;;;;;;;4.37;1.37;;;;;;;;;;5062724;28;20818;-82
2023/01/14 02:17:38;;;;;;;9.60;3.63;;;;;;;;;;5060276;28;21037;-81
2023/01/14 02:20:14;;;;;;;4.73;1.13;;;;;;;;;;5061377;28;20852;-82
2023/01/14 02:22:51;;;;;;;3.97;1.30;;;;;;;;;;5061889;28;20845;-82
2023/01/14 02:25:29;;;;;;;1.30;0.97;;;;;;;;;;5062683;28;20961;-81
2023/01/14 02:27:59;;;;;;;3.03;0.90;;;;;;;;;;5057480;28;20487;-81
2023/01/14 02:30:37;;;;;;;3.67;1.20;;;;;;;;;;5060846;28;20472;-82
2023/01/14 02:33:09;;;;;;;3.77;1.30;;;;;;;;;;5068226;28;20498;-83
2023/01/14 02:35:39;;;;;;;8.93;2.00;;;;;;;;;;5063034;28;20470;-82
2023/01/14 02:38:12;;;;;;;5.50;1.80;;;;;;;;;;5060465;28;20494;-82
2023/01/14 02:40:41;;;;;;;4.67;1.53;;;;;;;;;;5061444;28;20491;-82
2023/01/14 02:45:59;;;;;;;11.23;3.20;;;;;;;;;;5059269;28;20474;-82
2023/01/14 02:48:27;;;;;;;10.33;2.77;;;;;;;;;;5060797;28;20493;-82
2023/01/14 02:50:54;;;;;;;11.43;3.47;;;;;;;;;;5059080;28;20483;-81
2023/01/14 02:53:20;;;;;;;18.27;3.47;;;;;;;;;;5059921;28;20483;-82
2023/01/14 02:55:48;;;;;;;8.17;3.67;;;;;;;;;;5059610;28;20862;-81
2023/01/14 02:58:35;;;;;;;6.37;3.00;;;;;;;;;;5059340;28;20862;-82
2023/01/14 03:01:13;;;;;;;7.30;2.80;;;;;;;;;;5043482;28;20470;-82
2023/01/14 03:03:46;;;;;;;6.07;3.53;;;;;;;;;;5061455;28;20519;-82
2023/01/14 03:06:21;;;;;;;10.97;3.00;;;;;;;;;;5059705;28;20489;-82
2023/01/14 03:08:52;;;;;;;12.13;3.00;;;;;;;;;;5061201;28;20843;-81
2023/01/14 03:11:19;;;;;;;9.40;4.00;;;;;;;;;;5061156;28;20478;-82
2023/01/14 03:13:49;;;;;;;13.13;4.37;;;;;;;;;;5060684;28;20552;-82
2023/01/14 03:16:21;;;;;;;10.23;3.63;;;;;;;;;;5059940;28;20480;-81
2023/01/14 03:18:49;;;;;;;7.47;3.50;;;;;;;;;;5058768;28;20463;-82
2023/01/14 03:21:18;;;;;;;18.17;3.60;;;;;;;;;;5058624;28;20480;-82
2023/01/14 03:23:48;;;;;;;11.07;3.60;;;;;;;;;;5057876;28;20472;-82
2023/01/14 03:26:15;;;;;;;6.30;3.60;;;;;;;;;;5060697;28;21038;-82
2023/01/14 03:28:46;;;;;;;11.30;3.93;;;;;;;;;;5057909;28;20479;-82
2023/01/14 03:31:14;;;;;;;15.67;4.00;;;;;;;;;;5057856;28;20471;-82
2023/01/14 03:33:46;;;;;;;9.53;4.10;;;;;;;;;;5059997;28;20486;-81
2023/01/14 03:36:13;;;;;;;21.53;3.43;;;;;;;;;;5059284;28;20476;-81
2023/01/14 03:38:40;;;;;;;10.70;3.93;;;;;;;;;;5060409;28;20546;-81
2023/01/14 03:41:08;;;;;;;10.40;3.93;;;;;;;;;;5057289;28;20505;-81
2023/01/14 03:43:38;;;;;;;14.67;3.80;;;;;;;;;;5060193;28;20476;-81
2023/01/14 03:46:05;;;;;;;9.57;3.03;;;;;;;;;;5060819;28;20474;-82
2023/01/14 03:48:31;;;;;;;14.37;3.90;;;;;;;;;;5062910;28;20483;-81
2023/01/14 03:51:02;;;;;;;16.03;4.60;;;;;;;;;;5062195;28;20468;-82
2023/01/14 03:53:33;;;;;;;14.53;4.57;;;;;;;;;;5060724;28;20478;-81
2023/01/14 03:56:03;;;;;;;20.87;5.37;;;;;;;;;;5064279;28;20549;-81
2023/01/14 03:58:35;;;;;;;18.87;4.47;;;;;;;;;;5062615;28;20462;-81
2023/01/14 04:01:06;;;;;;;14.90;4.40;;;;;;;;;;5062295;28;20481;-82
2023/01/14 04:03:32;;;;;;;14.87;3.80;;;;;;;;;;5063942;28;21028;-82
2023/01/14 04:06:00;;;;;;;15.13;4.77;;;;;;;;;;5062179;28;20494;-81
2023/01/14 04:08:27;;;;;;;22.97;5.47;;;;;;;;;;5062991;28;20494;-82
2023/01/14 04:10:53;;;;;;;11.50;3.30;;;;;;;;;;5063249;28;20482;-83
2023/01/14 04:16:04;;;;;;;17.33;4.97;;;;;;;;;;5063518;28;21245;-81
2023/01/14 04:18:30;;;;;;;14.93;4.23;;;;;;;;;;5064517;28;20446;-81
2023/01/14 04:20:56;;;;;;;9.30;4.43;;;;;;;;;;5063914;28;20475;-81
2023/01/14 04:23:24;;;;;;;8.97;3.57;;;;;;;;;;5063076;28;20475;-81
2023/01/14 04:25:55;;;;;;;10.83;3.30;;;;;;;;;;5063951;28;20844;-81
2023/01/14 04:28:22;;;;;;;15.53;4.23;;;;;;;;;;5061832;28;20487;-81
2023/01/14 04:30:48;;;;;;;13.37;3.97;;;;;;;;;;5063664;28;20490;-82
2023/01/14 04:33:15;;;;;;;16.60;4.23;;;;;;;;;;5060690;28;20475;-81
2023/01/14 04:35:41;;;;;;;10.03;3.37;;;;;;;;;;5061982;28;20463;-82
2023/01/14 04:38:07;;;;;;;13.07;3.50;;;;;;;;;;5062032;28;20535;-81
2023/01/14 04:40:35;;;;;;;16.47;4.43;;;;;;;;;;5062096;28;20476;-81
2023/01/14 04:43:00;;;;;;;16.37;3.93;;;;;;;;;;5060849;28;20569;-82
2023/01/14 04:45:27;;;;;;;14.40;3.30;;;;;;;;;;5061544;28;20475;-82
2023/01/14 04:47:53;;;;;;;8.43;3.40;;;;;;;;;;5061647;28;20201;-82
2023/01/14 04:50:33;;;;;;;27.70;6.20;;;;;;;;;;5059561;28;21038;-82
2023/01/14 04:53:03;;;;;;;14.40;3.60;;;;;;;;;;5062470;28;20480;-82
2023/01/14 04:55:30;;;;;;;13.87;3.90;;;;;;;;;;5061289;28;21011;-81
2023/01/14 04:57:57;;;;;;;15.20;4.47;;;;;;;;;;5061317;28;20477;-81
2023/01/14 05:00:24;;;;;;;14.07;3.37;;;;;;;;;;5059560;28;20459;-81
2023/01/14 05:02:51;;;;;;;16.20;4.03;;;;;;;;;;5061927;28;20912;-83
2023/01/14 05:05:17;;;;;;;9.53;3.13;;;;;;;;;;5061448;28;20482;-81
2023/01/14 05:07:43;;;;;;;13.30;3.17;;;;;;;;;;5059853;28;20455;-83
2023/01/14 05:10:10;;;;;;;18.30;4.90;;;;;;;;;;5062782;28;20468;-82
2023/01/14 05:12:37;;;;;;;9.70;3.00;;;;;;;;;;5062279;28;20474;-82
2023/01/14 05:15:05;;;;;;;29.43;4.30;;;;;;;;;;5062457;28;20855;-82
2023/01/14 05:17:31;;;;;;;11.10;3.40;;;;;;;;;;5062661;28;20436;-82
2023/01/14 05:19:58;;;;;;;15.87;3.47;;;;;;;;;;5062248;28;20989;-81
2023/01/14 05:22:24;;;;;;;17.70;2.90;;;;;;;;;;5062316;28;20474;-81
2023/01/14 05:24:50;;;;;;;8.80;3.83;;;;;;;;;;5061310;28;20474;-81
2023/01/14 05:27:17;;;;;;;18.63;3.33;;;;;;;;;;5063379;28;20787;-81
2023/01/14 05:29:43;;;;;;;11.30;3.90;;;;;;;;;;5060743;28;20474;-83
2023/01/14 05:32:12;;;;;;;11.63;3.90;;;;;;;;;;5062395;28;20451;-82
2023/01/14 05:34:38;;;;;;;22.10;4.83;;;;;;;;;;5062268;28;20550;-81
2023/01/14 05:37:04;;;;;;;11.43;3.30;;;;;;;;;;5062431;28;20816;-81
2023/01/14 05:39:31;;;;;;;18.33;4.10;;;;;;;;;;5061494;28;20466;-81
2023/01/14 05:47:26;;;;;;;7.80;3.10;;;;;;;;;;5060881;28;20469;-81
2023/01/14 05:49:52;;;;;;;13.90;3.80;;;;;;;;;;5060435;28;20478;-81
2023/01/14 05:52:18;;;;;;;16.93;3.70;;;;;;;;;;5058493;28;20476;-81
2023/01/14 05:54:45;;;;;;;12.83;3.90;;;;;;;;;;5058313;28;20471;-81
2023/01/14 05:57:14;;;;;;;16.63;5.30;;;;;;;;;;5061036;28;20843;-81
2023/01/14 05:59:42;;;;;;;15.13;4.47;;;;;;;;;;5061824;28;20524;-82
2023/01/14 06:07:49;;;;;;;17.73;4.97;;;;;;;;;;5066467;28;20448;-81
2023/01/14 06:10:16;;;;;;;17.27;4.87;;;;;;;;;;5059659;28;20860;-82
2023/01/14 06:15:22;;;;;;;15.20;5.63;;;;;;;;;;5057354;28;20489;-84
2023/01/14 06:17:57;;;;;;;20.20;4.57;;;;;;;;;;5060862;28;20459;-82
2023/01/14 06:20:25;;;;;;;15.60;4.97;;;;;;;;;;5060635;28;20563;-82
2023/01/14 06:22:54;;;;;;;12.80;7.10;;;;;;;;;;5060054;28;20483;-81
2023/01/14 06:25:20;;;;;;;18.43;5.80;;;;;;;;;;5061337;28;20837;-82
2023/01/14 06:27:47;;;;;;;19.50;4.90;;;;;;;;;;5059560;28;20456;-82
2023/01/14 06:30:13;;;;;;;22.70;5.23;;;;;;;;;;5059504;28;20472;-82
2023/01/14 06:32:39;;;;;;;23.70;6.97;;;;;;;;;;5057902;28;21202;-82
2023/01/14 06:35:07;;;;;;;16.27;6.33;;;;;;;;;;5059851;28;20480;-82
2023/01/14 06:37:34;;;;;;;20.60;5.47;;;;;;;;;;5056485;28;20464;-83
2023/01/14 06:40:01;;;;;;;17.27;6.50;;;;;;;;;;5061253;28;20505;-83
2023/01/14 06:42:27;;;;;;;26.53;6.60;;;;;;;;;;5056770;28;20482;-82
2023/01/14 06:44:53;;;;;;;12.57;4.90;;;;;;;;;;5056577;28;20840;-82
2023/01/14 06:47:19;;;;;;;21.60;7.80;;;;;;;;;;5058279;28;20455;-82
2023/01/14 06:49:46;;;;;;;18.83;5.83;;;;;;;;;;5061392;28;20469;-82
2023/01/14 06:52:12;;;;;;;10.43;5.23;;;;;;;;;;5060319;28;20479;-81
2023/01/14 06:54:40;;;;;;;14.70;6.13;;;;;;;;;;5059816;28;20469;-81
2023/01/14 06:57:06;;;;;;;19.63;6.27;;;;;;;;;;5060177;28;20460;-81
2023/01/14 06:59:32;;;;;;;23.10;5.70;;;;;;;;;;5056432;28;20456;-82
2023/01/14 07:01:59;;;;;;;23.83;6.10;;;;;;;;;;5062017;28;20460;-81
2023/01/14 07:04:25;;;;;;;21.30;5.90;;;;;;;;;;5060848;28;20502;-82
2023/01/14 07:06:53;;;;;;;22.70;5.63;;;;;;;;;;5060388;28;20585;-82
2023/01/14 07:09:19;;;;;;;20.97;5.77;;;;;;;;;;5061010;28;20475;-82
2023/01/14 07:11:47;;;;;;;23.50;5.60;;;;;;;;;;5059634;28;20447;-82
2023/01/14 07:14:13;;;;;;;13.43;6.00;;;;;;;;;;5056198;28;20549;-82
2023/01/14 07:16:39;;;;;;;20.60;5.80;;;;;;;;;;5059781;28;20474;-82
2023/01/14 07:19:06;;;;;;;16.07;5.20;;;;;;;;;;5057383;28;20451;-82
2023/01/14 07:21:32;;;;;;;19.10;5.47;;;;;;;;;;5062768;28;20482;-81
2023/01/14 07:23:58;;;;;;;21.23;6.20;;;;;;;;;;5062486;28;20486;-81
2023/01/14 07:26:25;;;;;;;19.80;8.00;;;;;;;;;;5062983;28;20470;-82
2023/01/14 07:28:54;;;;;;;16.50;7.20;;;;;;;;;;5064057;28;20956;-81
2023/01/14 07:31:20;;;;;;;18.33;7.40;;;;;;;;;;5062638;28;20471;-81
2023/01/14 07:33:47;;;;;;;17.50;6.80;;;;;;;;;;5064030;28;20479;-81
2023/01/14 07:36:13;;;;;;;24.63;7.40;;;;;;;;;;5061110;28;20473;-81
2023/01/14 07:38:39;;;;;;;21.63;6.47;;;;;;;;;;5065615;28;20471;-81
2023/01/14 07:41:08;;;;;;;24.17;7.00;;;;;;;;;;5061473;28;20498;-81
2023/01/14 07:43:35;;;;;;;21.87;6.60;;;;;;;;;;5063070;28;20549;-81
2023/01/14 07:46:03;;;;;;;21.67;7.77;;;;;;;;;;5061175;28;20479;-81
2023/01/14 07:48:29;;;;;;;20.37;9.23;;;;;;;;;;5062104;28;20935;-81
2023/01/14 07:50:55;;;;;;;25.20;7.60;;;;;;;;;;5063657;28;20924;-81
2023/01/14 07:53:22;;;;;;;26.33;7.73;;;;;;;;;;5066029;28;20486;-81
2023/01/14 07:55:48;;;;;;;34.47;7.63;;;;;;;;;;5069318;28;20470;-82
2023/01/14 07:58:15;;;;;;;36.60;8.37;;;;;;;;;;5066669;28;20481;-81
2023/01/14 08:00:42;;;;;;;21.20;8.63;;;;;;;;;;5065752;28;20470;-81
2023/01/14 08:03:09;;;;;;;27.40;9.00;;;;;;;;;;5065942;28;20500;-81
2023/01/14 08:05:36;;;;;;;23.43;7.53;;;;;;;;;;5061966;28;20471;-82
2023/01/14 08:08:03;;;;;;;28.43;8.90;;;;;;;;;;5068332;28;20466;-81
2023/01/14 08:10:29;;;;;;;26.63;9.40;;;;;;;;;;5064193;28;20479;-80
2023/01/14 08:12:55;;;;;;;31.10;10.53;;;;;;;;;;5060094;28;20487;-82
2023/01/14 08:15:23;;;;;;;25.77;9.00;;;;;;;;;;5063240;28;20478;-81
2023/01/14 08:17:50;;;;;;;35.33;9.43;;;;;;;;;;5066259;28;20452;-81
2023/01/14 08:20:22;;;;;;;25.73;8.70;;;;;;;;;;5065625;28;20482;-81
2023/01/14 08:22:48;;;;;;;23.83;8.70;;;;;;;;;;5069100;28;20464;-81
2023/01/14 08:25:14;;;;;;;23.80;8.23;;;;;;;;;;5067355;28;20468;-81
2023/01/14 08:27:41;;;;;;;28.33;8.60;;;;;;;;;;5068906;28;20980;-81
2023/01/14 08:30:08;;;;;;;28.67;8.77;;;;;;;;;;5068121;28;20894;-82
2023/01/14 08:32:34;;;;;;;28.20;9.33;;;;;;;;;;5064720;28;20507;-81
2023/01/14 08:35:00;;;;;;;24.47;8.67;;;;;;;;;;5065680;28;20472;-81
2023/01/14 08:37:28;;;;;;;20.27;8.00;;;;;;;;;;5066534;28;20459;-82
2023/01/14 08:39:54;;;;;;;23.00;8.40;;;;;;;;;;5064595;28;20556;-81
2023/01/14 08:42:21;;;;;;;30.10;9.90;;;;;;;;;;5067643;28;20485;-81
2023/01/14 08:44:47;;;;;;;30.17;8.57;;;;;;;;;;5065284;28;20494;-81
2023/01/14 08:47:13;;;;;;;28.93;11.00;;;;;;;;;;5064820;28;20454;-81
2023/01/14 08:49:40;;;;;;;29.37;8.43;;;;;;;;;;5065014;28;20468;-81
2023/01/14 08:52:06;;;;;;;26.33;8.70;;;;;;;;;;5062443;28;20455;-81
2023/01/14 08:54:34;;;;;;;33.23;9.83;;;;;;;;;;5063736;28;20447;-81
2023/01/14 08:57:01;;;;;;;30.53;10.37;;;;;;;;;;5068193;28;20459;-81
2023/01/14 08:59:27;;;;;;;21.90;7.63;;;;;;;;;;5067554;28;20452;-81
2023/01/14 09:01:54;;;;;;;25.73;8.67;;;;;;;;;;5066691;28;20455;-81
2023/01/14 09:04:20;;;;;;;22.27;9.00;;;;;;;;;;5065474;28;20474;-81
2023/01/14 09:17:43;;;;;;;27.70;9.87;;;;;;;;;;5063498;28;20454;-81
2023/01/14 09:20:11;;;;;;;25.43;8.90;;;;;;;;;;5062968;28;20471;-81
2023/01/14 09:22:37;;;;;;;32.17;10.07;;;;;;;;;;5061725;28;20873;-82
2023/01/14 09:25:04;;;;;;;32.70;8.50;;;;;;;;;;5064462;28;20482;-81
2023/01/14 09:27:32;;;;;;;22.60;9.33;;;;;;;;;;5061616;28;20473;-81
2023/01/14 09:29:58;;;;;;;29.03;8.90;;;;;;;;;;5061355;28;20483;-82
2023/01/14 09:32:25;;;;;;;44.40;8.70;;;;;;;;;;5061603;28;20475;-82
2023/01/14 09:34:52;;;;;;;19.13;8.20;;;;;;;;;;5060760;28;20847;-81
2023/01/14 09:37:20;;;;;;;34.20;8.20;;;;;;;;;;5063163;28;20470;-81
2023/01/14 09:39:46;;;;;;;22.07;8.50;;;;;;;;;;5061942;28;20470;-81
2023/01/14 09:42:15;;;;;;;22.10;7.70;;;;;;;;;;5061225;28;20824;-81
2023/01/14 09:44:44;;;;;;;20.30;6.47;;;;;;;;;;5061595;28;21004;-81
2023/01/14 09:47:11;;;;;;;26.93;7.50;;;;;;;;;;5060640;28;20463;-81
2023/01/14 09:49:38;;;;;;;26.73;7.53;;;;;;;;;;5060697;28;20478;-81
2023/01/14 09:52:13;;;;;;;28.40;9.10;;;;;;;;;;5062910;28;20470;-81
2023/01/14 09:54:44;;;;;;;23.17;6.60;;;;;;;;;;5058058;28;20467;-81
2023/01/14 09:57:13;;;;;;;30.07;7.10;;;;;;;;;;5060860;28;20452;-81
2023/01/14 09:59:42;;;;;;;27.00;6.97;;;;;;;;;;5046026;28;20458;-82
2023/01/14 10:02:15;;;;;;;25.90;6.53;;;;;;;;;;5063737;28;20979;-80
2023/01/14 10:04:49;;;;;;;32.60;7.83;;;;;;;;;;5058765;28;20470;-80
2023/01/14 10:07:17;;;;;;;18.37;5.90;;;;;;;;;;5062379;28;20443;-82
2023/01/14 10:09:45;;;;;;;21.20;5.63;;;;;;;;;;5059172;28;20467;-82
2023/01/14 10:12:15;;;;;;;16.03;5.30;;;;;;;;;;5060364;28;20845;-82
2023/01/14 10:14:44;;;;;;;23.53;6.47;;;;;;;;;;5061200;28;20849;-82
2023/01/14 10:17:15;;;;;;;22.23;5.67;;;;;;;;;;5058916;28;20465;-81
2023/01/14 10:19:43;;;;;;;22.67;4.77;;;;;;;;;;5057581;28;20471;-82
2023/01/14 10:22:13;;;;;;;23.70;6.07;;;;;;;;;;5060393;28;20979;-81
2023/01/14 10:24:40;;;;;;;14.03;5.03;;;;;;;;;;5060920;28;20463;-82
2023/01/14 10:27:10;;;;;;;13.50;4.83;;;;;;;;;;5059933;28;20472;-81
2023/01/14 10:29:37;;;;;;;15.63;5.90;;;;;;;;;;5059017;28;20467;-82
2023/01/14 10:32:03;;;;;;;15.40;4.53;;;;;;;;;;5058021;28;20498;-81
2023/01/14 10:34:33;;;;;;;18.60;4.90;;;;;;;;;;5059418;28;20455;-81
2023/01/14 10:37:00;;;;;;;24.97;6.10;;;;;;;;;;5060251;28;20460;-82
2023/01/14 10:39:27;;;;;;;10.30;3.53;;;;;;;;;;5068776;28;20467;-79
2023/01/14 10:42:00;;;;;;;16.80;4.50;;;;;;;;;;5062745;28;20447;-79
2023/01/14 10:44:29;;;;;;;10.50;4.77;;;;;;;;;;5062194;28;20467;-79
2023/01/14 10:46:57;;;;;;;20.27;4.77;;;;;;;;;;5061172;28;20463;-79
2023/01/14 10:49:29;;;;;;;23.07;5.60;;;;;;;;;;5061289;28;20458;-82
2023/01/14 10:51:57;;;;;;;18.80;5.20;;;;;;;;;;5065001;28;20486;-79
2023/01/14 10:54:24;;;;;;;12.80;5.23;;;;;;;;;;5052608;28;20505;-79
2023/01/14 10:56:52;;;;;;;18.83;5.53;;;;;;;;;;5066137;28;21020;-79
2023/01/14 10:59:25;;;;;;;23.33;5.87;;;;;;;;;;5065253;28;20477;-79
2023/01/14 11:01:52;;;;;;;15.83;5.50;;;;;;;;;;5065634;28;20491;-80
2023/01/14 11:04:20;;;;;;;18.10;5.07;;;;;;;;;;5061450;28;20557;-79
2023/01/14 11:06:48;;;;;;;21.60;5.10;;;;;;;;;;5065969;28;20519;-79
2023/01/14 11:09:19;;;;;;;25.27;5.87;;;;;;;;;;5064966;28;20471;-79
2023/01/14 11:11:46;;;;;;;16.00;4.90;;;;;;;;;;5066515;28;20481;-79
2023/01/14 11:14:18;;;;;;;17.93;5.50;;;;;;;;;;5062512;28;20901;-80
2023/01/14 11:16:44;;;;;;;13.73;5.07;;;;;;;;;;5067484;28;20455;-79
2023/01/14 11:19:19;;;;;;;19.53;5.87;;;;;;;;;;5064132;28;20475;-79
2023/01/14 11:21:47;;;;;;;16.67;5.50;;;;;;;;;;5066301;28;20827;-79
2023/01/14 11:24:23;;;;;;;13.10;3.90;;;;;;;;;;5064314;28;20487;-79
2023/01/14 11:26:49;;;;;;;12.70;4.77;;;;;;;;;;5065737;28;20442;-79
2023/01/14 11:29:21;;;;;;;13.13;4.47;;;;;;;;;;5064473;28;20472;-79
2023/01/14 11:31:48;;;;;;;13.80;4.10;;;;;;;;;;5065546;28;20480;-79
2023/01/14 11:34:19;;;;;;;13.27;6.30;;;;;;;;;;5064598;28;20504;-79
2023/01/14 11:36:45;;;;;;;14.60;4.10;;;;;;;;;;5064302;28;20455;-80
2023/01/14 11:39:15;;;;;;;14.33;4.20;;;;;;;;;;5065948;28;20468;-79
2023/01/14 11:41:42;;;;;;;19.97;4.30;;;;;;;;;;5065058;28;20460;-79
2023/01/14 11:44:20;;;;;;;4.80;2.63;;;;;;;;;;5065005;28;20479;-80
2023/01/14 11:47:01;;;;;;;14.90;3.77;;;;;;;;;;5066491;28;20450;-81
2023/01/14 11:49:29;;;;;;;14.87;5.40;;;;;;;;;;5065464;28;20467;-80
2023/01/14 11:51:56;;;;;;;14.77;3.93;;;;;;;;;;5066138;28;20510;-80
2023/01/14 11:54:23;;;;;;;14.87;4.93;;;;;;;;;;5063939;28;20475;-79
2023/01/14 11:56:50;;;;;;;15.97;3.97;;;;;;;;;;5063017;28;20456;-79
2023/01/14 11:59:20;;;;;;;13.87;3.40;;;;;;;;;;5062790;28;20483;-79
2023/01/14 12:01:49;;;;;;;16.67;3.40;;;;;;;;;;5066403;28;20444;-79
2023/01/14 12:04:19;;;;;;;11.73;3.60;;;;;;;;;;5062466;28;20471;-79
2023/01/14 12:06:46;;;;;;;10.63;3.50;;;;;;;;;;5063511;28;20465;-80
2023/01/14 12:09:18;;;;;;;9.10;2.77;;;;;;;;;;5066598;28;20466;-79
2023/01/14 12:11:48;;;;;;;7.70;2.80;;;;;;;;;;5068787;28;20479;-80
2023/01/14 12:17:04;;;;;;;9.90;4.00;;;;;;;;;;5071368;28;20447;-79
2023/01/14 12:19:34;;;;;;;8.87;3.40;;;;;;;;;;5068160;28;20471;-80
2023/01/14 12:22:03;;;;;;;9.57;4.60;;;;;;;;;;5068999;28;20463;-79
2023/01/14 12:24:32;;;;;;;5.80;3.20;;;;;;;;;;5067125;28;20475;-79
2023/01/14 12:27:02;;;;;;;13.00;3.07;;;;;;;;;;5066633;28;20490;-79
2023/01/14 12:29:34;;;;;;;12.00;4.07;;;;;;;;;;5068287;28;20486;-79
2023/01/14 12:32:06;;;;;;;7.07;3.60;;;;;;;;;;5069833;28;20486;-79
2023/01/14 12:34:39;;;;;;;13.67;3.30;;;;;;;;;;5067857;28;20467;-79
2023/01/14 12:37:10;;;;;;;14.17;3.40;;;;;;;;;;5068490;28;20435;-82
2023/01/14 12:48:06;;;;;;;4.93;3.43;;;;;;;;;;5068763;28;20547;-79
2023/01/14 12:50:34;;;;;;;7.23;2.90;;;;;;;;;;5067406;28;20469;-79
2023/01/14 12:53:00;;;;;;;5.67;2.57;;;;;;;;;;5068604;28;20502;-80
2023/01/14 12:55:30;;;;;;;7.43;2.80;;;;;;;;;;5068830;28;21101;-80
2023/01/14 12:57:58;;;;;;;8.10;3.60;;;;;;;;;;5066639;28;20466;-79
2023/01/14 13:00:27;;;;;;;4.10;2.60;;;;;;;;;;5065325;28;20526;-79
2023/01/14 13:02:56;;;;;;;2.50;2.23;;;;;;;;;;5068656;28;20475;-80
2023/01/14 13:05:26;;;;;;;7.03;3.90;;;;;;;;;;5066960;28;21032;-78
2023/01/14 13:07:55;;;;;;;11.47;3.47;;;;;;;;;;5066911;28;20942;-79
2023/01/14 13:10:27;;;;;;;6.97;2.67;;;;;;;;;;5070896;28;20443;-78
2023/01/14 13:12:54;;;;;;;10.90;2.50;;;;;;;;;;5066832;28;20464;-78
2023/01/14 13:15:27;;;;;;;6.90;2.50;;;;;;;;;;5063782;28;20464;-79
2023/01/14 13:17:55;;;;;;;1.97;1.83;;;;;;;;;;5065238;28;20468;-78
2023/01/14 13:20:39;;;;;;;10.47;5.57;;;;;;;;;;5062067;28;20478;-78
2023/01/14 13:23:08;;;;;;;8.37;3.03;;;;;;;;;;5055591;28;20996;-80
2023/01/14 13:25:36;;;;;;;8.17;2.70;;;;;;;;;;5063976;28;20503;-80
2023/01/14 13:28:24;;;;;;;10.43;3.10;;;;;;;;;;5066706;28;20478;-79
2023/01/14 13:30:53;;;;;;;11.47;3.70;;;;;;;;;;5067387;28;20470;-80
2023/01/14 13:33:24;;;;;;;4.60;2.03;;;;;;;;;;5062157;28;20467;-79
2023/01/14 13:36:09;;;;;;;10.83;2.50;;;;;;;;;;5067253;28;20473;-79
2023/01/14 13:38:39;;;;;;;5.27;2.20;;;;;;;;;;5066382;28;21007;-80
2023/01/14 13:41:08;;;;;;;7.63;2.97;;;;;;;;;;5066189;28;20465;-79
2023/01/14 13:43:36;;;;;;;5.23;2.13;;;;;;;;;;5065014;28;20517;-79
2023/01/14 13:46:05;;;;;;;15.37;2.60;;;;;;;;;;5065522;28;21141;-79
2023/01/14 13:48:36;;;;;;;5.90;2.13;;;;;;;;;;5065856;28;20467;-79
2023/01/14 13:51:16;;;;;;;13.10;3.10;;;;;;;;;;5065082;28;20979;-79
2023/01/14 13:53:51;;;;;;;6.00;2.70;;;;;;;;;;5065314;28;20480;-80
2023/01/14 13:56:22;;;;;;;5.03;2.50;;;;;;;;;;5062626;28;20463;-80
2023/01/14 13:58:50;;;;;;;10.97;2.40;;;;;;;;;;5064019;28;20479;-80
2023/01/14 14:01:25;;;;;;;6.30;1.97;;;;;;;;;;5063618;28;20521;-78
2023/01/14 14:03:52;;;;;;;5.50;2.30;;;;;;;;;;5064205;28;20471;-80
2023/01/14 14:06:37;;;;;;;7.70;2.50;;;;;;;;;;5063695;28;20454;-79
2023/01/14 14:09:05;;;;;;;8.10;2.40;;;;;;;;;;5062710;28;20476;-80
2023/01/14 14:11:37;;;;;;;4.47;1.90;;;;;;;;;;5065168;28;20503;-80
2023/01/14 14:14:06;;;;;;;3.93;2.00;;;;;;;;;;5061470;28;20537;-79
2023/01/14 14:16:36;;;;;;;4.87;2.10;;;;;;;;;;5066746;28;20513;-79
2023/01/14 14:19:05;;;;;;;5.93;2.23;;;;;;;;;;5066112;28;20466;-79
2023/01/14 14:21:37;;;;;;;3.57;2.23;;;;;;;;;;5066062;28;20443;-79
2023/01/14 14:24:05;;;;;;;4.43;1.77;;;;;;;;;;5064816;28;20478;-79
2023/01/14 14:26:32;;;;;;;2.87;2.10;;;;;;;;;;5064972;28;20530;-79
2023/01/14 14:29:02;;;;;;;7.60;2.60;;;;;;;;;;5062976;28;20467;-77
2023/01/14 14:31:31;;;;;;;5.67;2.37;;;;;;;;;;5061430;28;20924;-80
2023/01/14 14:34:03;;;;;;;3.63;2.00;;;;;;;;;;5066836;28;20820;-80
2023/01/14 14:36:30;;;;;;;4.93;1.90;;;;;;;;;;5065237;28;20443;-78
2023/01/14 14:39:00;;;;;;;5.30;2.40;;;;;;;;;;5060951;28;21069;-78
2023/01/14 14:41:33;;;;;;;4.30;2.50;;;;;;;;;;5064009;28;20451;-79
2023/01/14 14:44:01;;;;;;;5.23;2.50;;;;;;;;;;5062533;28;20482;-78
2023/01/14 14:46:28;;;;;;;5.13;1.87;;;;;;;;;;5057913;28;20463;-78
2023/01/14 14:48:54;;;;;;;4.10;2.07;;;;;;;;;;5057994;28;20558;-77
2023/01/14 14:51:27;;;;;;;3.40;2.20;;;;;;;;;;5062658;28;20956;-79
2023/01/14 14:53:54;;;;;;;4.23;2.37;;;;;;;;;;5059302;28;20550;-78
2023/01/14 14:56:22;;;;;;;3.63;2.93;;;;;;;;;;5059887;28;20451;-78
2023/01/14 14:58:50;;;;;;;2.10;1.90;;;;;;;;;;5060175;28;20475;-78
2023/01/14 15:01:22;;;;;;;3.30;1.57;;;;;;;;;;5057996;28;20459;-80
2023/01/14 15:03:48;;;;;;;2.20;2.10;;;;;;;;;;5059330;28;20491;-78
2023/01/14 15:06:15;;;;;;;2.93;1.90;;;;;;;;;;5061452;28;20463;-79
2023/01/14 15:08:45;;;;;;;5.40;1.70;;;;;;;;;;5063448;28;20478;-79
2023/01/14 15:11:12;;;;;;;2.97;2.00;;;;;;;;;;5060380;28;20479;-80
2023/01/14 15:13:42;;;;;;;1.83;1.60;;;;;;;;;;5061199;28;20545;-80
2023/01/14 15:16:14;;;;;;;3.90;1.93;;;;;;;;;;5062487;28;20460;-80
2023/01/14 15:18:42;;;;;;;2.03;1.93;;;;;;;;;;5060932;28;20474;-79
2023/01/14 15:21:12;;;;;;;5.47;3.20;;;;;;;;;;5063503;28;20511;-78
2023/01/14 15:23:41;;;;;;;5.43;2.33;;;;;;;;;;5056541;28;20586;-79